createdAt,value
2018-11-29T00:00:05.910Z,-0.60
2018-11-29T00:01:04.954Z,-0.60
2018-11-29T00:02:07.556Z,-0.50
2018-11-29T00:03:05.616Z,-0.60
2018-11-29T00:04:04.888Z,-0.60
2018-11-29T00:05:04.956Z,-0.60
2018-11-29T00:06:07.639Z,-0.60
2018-11-29T00:07:05.770Z,-0.60
2018-11-29T00:08:09.881Z,-0.60
2018-11-29T00:09:04.743Z,-0.60
2018-11-29T00:10:04.895Z,-0.60
2018-11-29T00:11:04.967Z,-0.60
2018-11-29T00:12:05.064Z,-0.60
2018-11-29T00:13:07.678Z,-0.60
2018-11-29T00:14:04.625Z,-0.60
2018-11-29T00:15:07.474Z,-0.60
2018-11-29T00:16:08.138Z,-0.60
2018-11-29T00:17:05.142Z,-0.60
2018-11-29T00:18:07.800Z,-0.60
2018-11-29T00:19:04.652Z,-0.70
2018-11-29T00:20:07.232Z,-0.70
2018-11-29T00:21:07.630Z,-0.70
2018-11-29T00:22:05.586Z,-0.70
2018-11-29T00:23:04.603Z,-0.60
2018-11-29T00:24:04.673Z,-0.70
2018-11-29T00:25:07.255Z,-0.70
2018-11-29T00:26:07.921Z,-0.70
2018-11-29T00:27:04.861Z,-0.70
2018-11-29T00:28:04.870Z,-0.70
2018-11-29T00:29:05.350Z,-0.70
2018-11-29T00:30:05.450Z,-0.70
2018-11-29T00:31:05.737Z,-0.70
2018-11-29T00:32:07.546Z,-0.70
2018-11-29T00:33:05.598Z,-0.70
2018-11-29T00:34:04.724Z,-0.70
2018-11-29T00:35:04.794Z,-0.70
2018-11-29T00:36:04.824Z,-0.70
2018-11-29T00:37:04.920Z,-0.70
2018-11-29T00:38:04.974Z,-0.60
2018-11-29T00:39:05.061Z,-0.60
2018-11-29T00:40:05.173Z,-0.60
2018-11-29T00:41:05.363Z,-0.60
2018-11-29T00:42:05.435Z,-0.60
2018-11-29T00:43:08.198Z,-0.60
2018-11-29T00:44:07.696Z,-0.50
2018-11-29T00:45:04.823Z,-0.60
2018-11-29T00:46:04.924Z,-0.60
2018-11-29T00:47:05.132Z,-0.60
2018-11-29T00:48:05.144Z,-0.60
2018-11-29T00:49:04.624Z,-0.60
2018-11-29T00:50:04.681Z,-0.50
2018-11-29T00:51:04.809Z,-0.60
2018-11-29T00:52:07.577Z,-0.60
2018-11-29T00:53:05.597Z,-0.50
2018-11-29T00:54:10.737Z,-0.60
2018-11-29T00:55:08.223Z,-0.50
2018-11-29T00:56:05.116Z,-0.50
2018-11-29T00:57:05.227Z,-0.50
2018-11-29T00:58:05.327Z,-0.50
2018-11-29T00:59:07.950Z,-0.50
2018-11-29T01:00:04.866Z,-0.50
2018-11-29T01:01:07.988Z,-0.50
2018-11-29T01:02:07.597Z,-0.50
2018-11-29T01:03:05.498Z,-0.50
2018-11-29T01:04:05.626Z,-0.50
2018-11-29T01:05:09.758Z,-0.50
2018-11-29T01:06:04.645Z,-0.50
2018-11-29T01:07:04.890Z,-0.50
2018-11-29T01:08:07.556Z,-0.50
2018-11-29T01:09:07.981Z,-0.50
2018-11-29T01:10:05.082Z,-0.50
2018-11-29T01:11:05.239Z,-0.50
2018-11-29T01:12:07.851Z,-0.50
2018-11-29T01:13:04.936Z,-0.50
2018-11-29T01:14:05.144Z,-0.50
2018-11-29T01:15:05.428Z,-0.50
2018-11-29T01:16:05.625Z,-0.50
2018-11-29T01:17:07.195Z,-0.50
2018-11-29T01:18:05.179Z,-0.50
2018-11-29T01:19:05.515Z,-0.50
2018-11-29T01:20:04.648Z,-0.50
2018-11-29T01:21:04.870Z,-0.50
2018-11-29T01:22:04.938Z,-0.50
2018-11-29T01:23:05.079Z,-0.50
2018-11-29T01:24:05.198Z,-0.50
2018-11-29T01:25:07.768Z,-0.50
2018-11-29T01:26:07.222Z,-0.50
2018-11-29T01:27:05.226Z,-0.50
2018-11-29T01:28:05.344Z,-0.50
2018-11-29T01:29:04.693Z,-0.50
2018-11-29T01:30:04.779Z,-0.40
2018-11-29T01:31:07.486Z,-0.50
2018-11-29T01:32:07.979Z,-0.50
2018-11-29T01:33:04.900Z,-0.50
2018-11-29T01:34:07.595Z,-0.50
2018-11-29T01:35:05.672Z,-0.50
2018-11-29T01:36:07.445Z,-0.50
2018-11-29T01:37:08.146Z,-0.50
2018-11-29T01:38:07.783Z,-0.50
2018-11-29T01:39:04.691Z,-0.50
2018-11-29T01:40:04.741Z,-0.50
2018-11-29T01:41:07.415Z,-0.60
2018-11-29T01:42:05.551Z,-0.50
2018-11-29T01:43:05.803Z,-0.50
2018-11-29T01:44:04.964Z,-0.50
2018-11-29T01:45:07.702Z,-0.50
2018-11-29T01:46:04.842Z,-0.50
2018-11-29T01:47:07.531Z,-0.50
2018-11-29T01:48:08.071Z,-0.50
2018-11-29T01:49:07.464Z,-0.60
2018-11-29T01:50:05.573Z,-0.50
2018-11-29T01:51:04.640Z,-0.50
2018-11-29T01:52:04.677Z,-0.50
2018-11-29T01:53:04.868Z,-0.50
2018-11-29T01:54:04.877Z,-0.50
2018-11-29T01:55:05.008Z,-0.50
2018-11-29T01:56:07.850Z,-0.50
2018-11-29T01:57:07.365Z,-0.50
2018-11-29T01:58:05.462Z,-0.50
2018-11-29T01:59:08.283Z,-0.50
2018-11-29T02:00:05.402Z,-0.50
2018-11-29T02:01:05.750Z,-0.50
2018-11-29T02:02:04.903Z,-0.50
2018-11-29T02:03:04.981Z,-0.50
2018-11-29T02:04:05.047Z,-0.50
2018-11-29T02:05:05.161Z,-0.50
2018-11-29T02:06:07.762Z,-0.50
2018-11-29T02:07:07.270Z,-0.50
2018-11-29T02:08:05.408Z,-0.50
2018-11-29T02:09:05.530Z,-0.50
2018-11-29T02:10:05.584Z,-0.50
2018-11-29T02:11:09.744Z,-0.50
2018-11-29T02:12:07.345Z,-0.50
2018-11-29T02:13:07.799Z,-0.50
2018-11-29T02:14:07.392Z,-0.60
2018-11-29T02:15:05.339Z,-0.50
2018-11-29T02:16:05.396Z,-0.60
2018-11-29T02:17:05.630Z,-0.50
2018-11-29T02:18:04.668Z,-0.60
2018-11-29T02:19:04.810Z,-0.60
2018-11-29T02:20:04.854Z,-0.60
2018-11-29T02:21:04.901Z,-0.60
2018-11-29T02:22:05.097Z,-0.50
2018-11-29T02:23:05.368Z,-0.60
2018-11-29T02:24:05.504Z,-0.60
2018-11-29T02:25:05.640Z,-0.60
2018-11-29T02:26:04.747Z,-0.60
2018-11-29T02:27:07.299Z,-0.50
2018-11-29T02:28:05.349Z,-0.60
2018-11-29T02:29:05.570Z,-0.60
2018-11-29T02:30:04.694Z,-0.50
2018-11-29T02:31:04.759Z,-0.50
2018-11-29T02:32:04.781Z,-0.50
2018-11-29T02:33:07.375Z,-0.50
2018-11-29T02:34:05.364Z,-0.50
2018-11-29T02:35:05.420Z,-0.50
2018-11-29T02:36:07.976Z,-0.50
2018-11-29T02:37:07.350Z,-0.50
2018-11-29T02:38:05.438Z,-0.50
2018-11-29T02:39:05.581Z,-0.50
2018-11-29T02:40:07.454Z,-0.50
2018-11-29T02:41:05.558Z,-0.50
2018-11-29T02:42:05.765Z,-0.50
2018-11-29T02:43:05.022Z,-0.40
2018-11-29T02:44:05.156Z,-0.50
2018-11-29T02:45:08.037Z,-0.50
2018-11-29T02:46:07.624Z,-0.50
2018-11-29T02:47:05.737Z,-0.50
2018-11-29T02:48:07.434Z,-0.50
2018-11-29T02:49:10.764Z,-0.50
2018-11-29T02:50:04.709Z,-0.40
2018-11-29T02:51:04.792Z,-0.50
2018-11-29T02:52:07.430Z,-0.40
2018-11-29T02:53:08.059Z,-0.40
2018-11-29T02:54:05.273Z,-0.40
2018-11-29T02:55:07.968Z,-0.40
2018-11-29T02:56:07.433Z,-0.40
2018-11-29T02:57:05.431Z,-0.40
2018-11-29T02:58:05.430Z,-0.40
2018-11-29T02:59:05.456Z,-0.40
2018-11-29T03:00:05.535Z,-0.40
2018-11-29T03:01:05.659Z,-0.40
2018-11-29T03:02:04.758Z,-0.40
2018-11-29T03:03:04.964Z,-0.40
2018-11-29T03:04:05.061Z,-0.40
2018-11-29T03:05:05.568Z,-0.40
2018-11-29T03:06:07.263Z,-0.40
2018-11-29T03:07:05.355Z,-0.40
2018-11-29T03:08:05.661Z,-0.40
2018-11-29T03:09:04.755Z,-0.30
2018-11-29T03:10:04.938Z,-0.40
2018-11-29T03:11:05.023Z,-0.40
2018-11-29T03:12:15.243Z,-0.40
2018-11-29T03:13:05.331Z,-0.40
2018-11-29T03:14:08.025Z,-0.40
2018-11-29T03:15:05.161Z,-0.40
2018-11-29T03:16:05.301Z,-0.40
2018-11-29T03:17:05.445Z,-0.30
2018-11-29T03:18:08.192Z,-0.30
2018-11-29T03:19:05.217Z,-0.40
2018-11-29T03:20:05.335Z,-0.40
2018-11-29T03:21:05.366Z,-0.40
2018-11-29T03:22:05.496Z,-0.40
2018-11-29T03:23:05.663Z,-0.40
2018-11-29T03:24:04.742Z,-0.40
2018-11-29T03:25:04.848Z,-0.40
2018-11-29T03:26:07.607Z,-0.40
2018-11-29T03:27:04.703Z,-0.40
2018-11-29T03:28:04.781Z,-0.40
2018-11-29T03:29:07.578Z,-0.40
2018-11-29T03:30:05.677Z,-0.40
2018-11-29T03:31:04.845Z,-0.40
2018-11-29T03:32:04.881Z,-0.40
2018-11-29T03:33:04.991Z,-0.40
2018-11-29T03:34:05.071Z,-0.40
2018-11-29T03:35:05.238Z,-0.40
2018-11-29T03:36:05.413Z,-0.40
2018-11-29T03:37:08.149Z,-0.40
2018-11-29T03:38:05.326Z,-0.40
2018-11-29T03:39:05.618Z,-0.40
2018-11-29T03:40:04.791Z,-0.40
2018-11-29T03:41:05.035Z,-0.40
2018-11-29T03:42:05.128Z,-0.40
2018-11-29T03:43:07.972Z,-0.40
2018-11-29T03:44:07.649Z,-0.40
2018-11-29T03:45:04.691Z,-0.40
2018-11-29T03:46:04.769Z,-0.40
2018-11-29T03:47:04.855Z,-0.40
2018-11-29T03:48:05.488Z,-0.40
2018-11-29T03:49:04.657Z,-0.40
2018-11-29T03:50:04.770Z,-0.40
2018-11-29T03:51:07.550Z,-0.40
2018-11-29T03:52:05.608Z,-0.40
2018-11-29T03:53:09.760Z,-0.40
2018-11-29T03:54:09.739Z,-0.40
2018-11-29T03:55:04.757Z,-0.40
2018-11-29T03:56:05.207Z,-0.40
2018-11-29T03:57:07.839Z,-0.40
2018-11-29T03:58:04.740Z,-0.40
2018-11-29T03:59:04.851Z,-0.40
2018-11-29T04:00:07.434Z,-0.40
2018-11-29T04:01:05.518Z,-0.40
2018-11-29T04:02:07.328Z,-0.40
2018-11-29T04:03:07.867Z,-0.40
2018-11-29T04:04:07.393Z,-0.40
2018-11-29T04:05:05.269Z,-0.40
2018-11-29T04:06:05.356Z,-0.40
2018-11-29T04:07:08.045Z,-0.40
2018-11-29T04:08:04.895Z,-0.40
2018-11-29T04:09:05.007Z,-0.40
2018-11-29T04:10:07.737Z,-0.30
2018-11-29T04:11:04.711Z,-0.40
2018-11-29T04:12:05.007Z,-0.40
2018-11-29T04:13:05.312Z,-0.40
2018-11-29T04:14:05.388Z,-0.30
2018-11-29T04:15:08.048Z,-0.30
2018-11-29T04:16:10.030Z,-0.30
2018-11-29T04:17:04.962Z,-0.30
2018-11-29T04:18:05.048Z,-0.30
2018-11-29T04:19:05.278Z,-0.30
2018-11-29T04:20:10.454Z,-0.30
2018-11-29T04:21:10.498Z,-0.30
2018-11-29T04:22:05.573Z,-0.30
2018-11-29T04:23:04.639Z,-0.30
2018-11-29T04:24:04.738Z,-0.30
2018-11-29T04:25:04.925Z,-0.30
2018-11-29T04:26:09.718Z,-0.20
2018-11-29T04:27:04.897Z,-0.30
2018-11-29T04:28:04.955Z,-0.20
2018-11-29T04:29:05.359Z,-0.20
2018-11-29T04:30:05.415Z,-0.20
2018-11-29T04:31:08.028Z,-0.20
2018-11-29T04:32:04.902Z,-0.20
2018-11-29T04:33:04.938Z,-0.20
2018-11-29T04:34:04.991Z,-0.20
2018-11-29T04:35:05.157Z,-0.20
2018-11-29T04:36:05.352Z,-0.20
2018-11-29T04:37:05.447Z,-0.20
2018-11-29T04:38:08.243Z,-0.20
2018-11-29T04:39:07.799Z,-0.20
2018-11-29T04:40:04.786Z,-0.10
2018-11-29T04:41:07.364Z,-0.20
2018-11-29T04:42:05.383Z,-0.20
2018-11-29T04:43:05.553Z,-0.20
2018-11-29T04:44:10.672Z,-0.20
2018-11-29T04:45:04.726Z,-0.20
2018-11-29T04:46:04.807Z,-0.20
2018-11-29T04:47:07.525Z,-0.20
2018-11-29T04:48:09.920Z,-0.20
2018-11-29T04:49:05.458Z,-0.20
2018-11-29T04:50:05.715Z,-0.20
2018-11-29T04:51:04.718Z,-0.20
2018-11-29T04:52:04.911Z,0.20
2018-11-29T04:53:04.976Z,-0.20
2018-11-29T04:54:05.094Z,-0.20
2018-11-29T04:55:05.259Z,-0.20
2018-11-29T04:56:05.378Z,-0.20
2018-11-29T04:57:05.458Z,-0.20
2018-11-29T04:58:05.608Z,-0.20
2018-11-29T04:59:09.855Z,-0.10
2018-11-29T05:00:04.774Z,-0.20
2018-11-29T05:01:04.861Z,-0.10
2018-11-29T05:02:04.902Z,-0.10
2018-11-29T05:03:04.982Z,-0.10
2018-11-29T05:04:05.105Z,0.00
2018-11-29T05:05:05.092Z,-0.10
2018-11-29T05:06:05.227Z,-0.10
2018-11-29T05:07:10.555Z,0.00
2018-11-29T05:08:05.692Z,-0.10
2018-11-29T05:09:05.022Z,0.00
2018-11-29T05:10:05.113Z,0.00
2018-11-29T05:11:05.172Z,0.00
2018-11-29T05:12:05.366Z,0.00
2018-11-29T05:13:05.469Z,0.00
2018-11-29T05:14:08.133Z,0.10
2018-11-29T05:15:07.549Z,0.10
2018-11-29T05:16:08.088Z,0.10
2018-11-29T05:17:07.542Z,0.10
2018-11-29T05:18:08.172Z,0.10
2018-11-29T05:19:05.109Z,0.10
2018-11-29T05:20:05.105Z,0.20
2018-11-29T05:21:05.184Z,0.20
2018-11-29T05:22:05.374Z,0.20
2018-11-29T05:23:05.461Z,0.20
2018-11-29T05:24:05.851Z,0.20
2018-11-29T05:25:05.407Z,0.20
2018-11-29T05:26:08.005Z,0.20
2018-11-29T05:27:04.864Z,0.20
2018-11-29T05:28:04.917Z,0.30
2018-11-29T05:29:08.175Z,0.30
2018-11-29T05:30:05.117Z,0.30
2018-11-29T05:31:07.789Z,0.30
2018-11-29T05:32:04.957Z,0.30
2018-11-29T05:33:07.538Z,0.30
2018-11-29T05:34:05.546Z,0.30
2018-11-29T05:35:05.785Z,0.30
2018-11-29T05:36:04.884Z,0.30
2018-11-29T05:37:04.949Z,0.30
2018-11-29T05:38:05.128Z,0.40
2018-11-29T05:39:05.327Z,0.40
2018-11-29T05:40:08.013Z,0.30
2018-11-29T05:41:07.492Z,0.40
2018-11-29T05:42:08.067Z,0.40
2018-11-29T05:43:04.983Z,0.40
2018-11-29T05:44:07.723Z,0.40
2018-11-29T05:45:04.772Z,0.40
2018-11-29T05:46:04.926Z,0.30
2018-11-29T05:47:05.163Z,0.30
2018-11-29T05:48:05.297Z,0.40
2018-11-29T05:49:07.456Z,0.40
2018-11-29T05:50:08.034Z,0.40
2018-11-29T05:51:07.472Z,0.40
2018-11-29T05:52:05.358Z,0.40
2018-11-29T05:53:05.457Z,0.40
2018-11-29T05:54:05.598Z,0.40
2018-11-29T05:55:04.706Z,0.40
2018-11-29T05:56:10.029Z,0.40
2018-11-29T05:57:07.532Z,0.40
2018-11-29T05:58:05.546Z,0.40
2018-11-29T05:59:04.747Z,0.40
2018-11-29T06:00:07.498Z,0.40
2018-11-29T06:01:05.647Z,0.40
2018-11-29T06:02:09.926Z,0.40
2018-11-29T06:03:04.877Z,0.40
2018-11-29T06:04:04.893Z,0.40
2018-11-29T06:05:07.581Z,0.40
2018-11-29T06:06:05.557Z,0.40
2018-11-29T06:07:08.134Z,0.40
2018-11-29T06:08:05.215Z,0.40
2018-11-29T06:09:07.819Z,0.50
2018-11-29T06:10:04.798Z,0.40
2018-11-29T06:11:07.331Z,0.40
2018-11-29T06:12:05.208Z,0.50
2018-11-29T06:13:05.342Z,0.40
2018-11-29T06:14:07.974Z,0.50
2018-11-29T06:15:07.579Z,0.50
2018-11-29T06:16:08.244Z,0.50
2018-11-29T06:17:05.319Z,0.50
2018-11-29T06:18:07.975Z,0.50
2018-11-29T06:19:09.955Z,0.50
2018-11-29T06:20:04.901Z,0.50
2018-11-29T06:21:04.977Z,0.50
2018-11-29T06:22:05.035Z,0.50
2018-11-29T06:23:05.250Z,0.50
2018-11-29T06:24:05.461Z,0.50
2018-11-29T06:25:07.552Z,0.50
2018-11-29T06:26:05.659Z,0.50
2018-11-29T06:28:05.160Z,0.50
2018-11-29T06:29:04.926Z,0.50
2018-11-29T06:30:05.168Z,0.50
2018-11-29T06:31:07.895Z,0.50
2018-11-29T06:32:04.779Z,0.50
2018-11-29T06:33:05.101Z,0.50
2018-11-29T06:34:05.203Z,0.50
2018-11-29T06:35:07.819Z,0.50
2018-11-29T06:36:04.745Z,0.50
2018-11-29T06:37:07.418Z,0.50
2018-11-29T06:38:05.382Z,0.50
2018-11-29T06:39:08.139Z,0.40
2018-11-29T06:40:07.612Z,0.50
2018-11-29T06:41:10.682Z,0.40
2018-11-29T06:42:10.051Z,0.40
2018-11-29T06:43:05.001Z,0.40
2018-11-29T06:44:07.629Z,0.50
2018-11-29T06:45:08.034Z,0.50
2018-11-29T06:46:05.048Z,0.40
2018-11-29T06:47:07.692Z,0.40
2018-11-29T06:48:08.194Z,0.40
2018-11-29T06:49:05.284Z,0.40
2018-11-29T06:50:05.471Z,0.40
2018-11-29T06:51:08.276Z,0.40
2018-11-29T06:52:05.390Z,0.40
2018-11-29T06:53:05.675Z,0.40
2018-11-29T06:54:07.319Z,0.50
2018-11-29T06:55:05.231Z,0.40
2018-11-29T06:56:05.228Z,0.40
2018-11-29T06:57:05.269Z,0.40
2018-11-29T06:58:05.089Z,0.50
2018-11-29T06:59:07.901Z,0.40
2018-11-29T07:00:05.064Z,0.40
2018-11-29T07:01:07.687Z,0.40
2018-11-29T07:02:04.749Z,0.40
2018-11-29T07:03:04.878Z,0.40
2018-11-29T07:04:07.554Z,0.40
2018-11-29T07:05:05.587Z,0.40
2018-11-29T07:06:04.771Z,0.50
2018-11-29T07:07:07.390Z,0.40
2018-11-29T07:08:05.526Z,0.40
2018-11-29T07:09:06.095Z,0.40
2018-11-29T07:10:05.158Z,0.40
2018-11-29T07:11:07.946Z,0.40
2018-11-29T07:12:04.880Z,0.40
2018-11-29T07:13:05.083Z,0.40
2018-11-29T07:14:05.437Z,0.50
2018-11-29T07:15:05.613Z,0.50
2018-11-29T07:16:04.782Z,0.40
2018-11-29T07:17:04.865Z,0.40
2018-11-29T07:18:07.494Z,0.50
2018-11-29T07:19:07.992Z,0.50
2018-11-29T07:20:07.594Z,0.50
2018-11-29T07:21:05.731Z,0.50
2018-11-29T07:22:05.002Z,0.50
2018-11-29T07:23:05.275Z,0.50
2018-11-29T07:24:10.507Z,0.50
2018-11-29T07:25:05.549Z,0.50
2018-11-29T07:26:04.814Z,0.50
2018-11-29T07:27:09.929Z,0.50
2018-11-29T07:28:05.095Z,0.50
2018-11-29T07:29:04.890Z,0.60
2018-11-29T07:30:04.984Z,0.50
2018-11-29T07:31:04.941Z,0.60
2018-11-29T07:32:07.661Z,0.60
2018-11-29T07:33:05.707Z,0.60
2018-11-29T07:34:04.897Z,0.60
2018-11-29T07:35:05.005Z,0.60
2018-11-29T07:36:05.162Z,0.70
2018-11-29T07:37:05.423Z,0.70
2018-11-29T07:38:08.058Z,0.70
2018-11-29T07:39:07.552Z,0.70
2018-11-29T07:40:08.024Z,0.80
2018-11-29T07:41:04.974Z,0.70
2018-11-29T07:42:07.665Z,0.80
2018-11-29T07:43:13.162Z,0.70
2018-11-29T07:44:07.791Z,0.80
2018-11-29T07:45:04.893Z,0.80
2018-11-29T07:46:04.962Z,0.80
2018-11-29T07:47:05.112Z,0.80
2018-11-29T07:48:05.239Z,0.80
2018-11-29T07:49:08.079Z,0.80
2018-11-29T07:50:05.110Z,0.80
2018-11-29T07:51:05.250Z,0.90
2018-11-29T07:52:05.301Z,0.90
2018-11-29T07:53:05.444Z,0.90
2018-11-29T07:54:08.135Z,0.90
2018-11-29T07:55:04.982Z,0.90
2018-11-29T07:56:05.039Z,0.90
2018-11-29T07:57:07.751Z,0.90
2018-11-29T07:58:09.798Z,0.90
2018-11-29T07:59:04.924Z,0.90
2018-11-29T08:00:07.748Z,1.00
2018-11-29T08:01:04.784Z,1.00
2018-11-29T08:02:05.103Z,1.00
2018-11-29T08:03:05.296Z,1.00
2018-11-29T08:04:05.608Z,1.00
2018-11-29T08:05:04.829Z,1.00
2018-11-29T08:06:12.520Z,1.00
2018-11-29T08:07:05.582Z,1.00
2018-11-29T08:09:07.331Z,1.10
2018-11-29T08:10:05.230Z,1.10
2018-11-29T08:12:07.951Z,1.10
2018-11-29T08:13:07.509Z,1.10
2018-11-29T08:14:05.437Z,1.20
2018-11-29T08:15:07.876Z,1.20
2018-11-29T08:16:04.974Z,1.20
2018-11-29T08:17:05.145Z,1.20
2018-11-29T08:18:05.330Z,1.20
2018-11-29T08:19:08.166Z,1.30
2018-11-29T08:20:05.108Z,1.30
2018-11-29T08:21:10.346Z,1.30
2018-11-29T08:22:07.999Z,1.30
2018-11-29T08:23:04.911Z,1.30
2018-11-29T08:24:04.976Z,1.30
2018-11-29T08:25:10.125Z,1.40
2018-11-29T08:26:05.211Z,1.40
2018-11-29T08:27:05.326Z,1.40
2018-11-29T08:28:05.381Z,1.40
2018-11-29T08:29:04.990Z,1.50
2018-11-29T08:30:05.030Z,1.40
2018-11-29T08:31:07.547Z,1.50
2018-11-29T08:32:08.049Z,1.50
2018-11-29T08:33:05.103Z,1.40
2018-11-29T08:34:07.652Z,1.50
2018-11-29T08:35:05.541Z,1.50
2018-11-29T08:36:05.745Z,1.50
2018-11-29T08:37:04.854Z,1.50
2018-11-29T08:38:07.616Z,1.60
2018-11-29T08:39:05.762Z,1.60
2018-11-29T08:40:07.536Z,1.60
2018-11-29T08:41:05.555Z,1.60
2018-11-29T08:42:04.883Z,1.70
2018-11-29T08:43:05.090Z,1.70
2018-11-29T08:44:05.330Z,1.70
2018-11-29T08:45:05.496Z,1.70
2018-11-29T08:46:05.616Z,1.70
2018-11-29T08:47:05.253Z,1.80
2018-11-29T08:48:07.715Z,1.80
2018-11-29T08:49:08.436Z,1.90
2018-11-29T08:50:10.670Z,1.90
2018-11-29T08:51:05.359Z,1.90
2018-11-29T08:52:05.664Z,1.90
2018-11-29T08:53:07.455Z,2.00
2018-11-29T08:54:05.482Z,2.00
2018-11-29T08:55:05.621Z,2.00
2018-11-29T08:56:04.871Z,2.00
2018-11-29T08:57:04.995Z,2.00
2018-11-29T08:58:05.074Z,2.10
2018-11-29T08:59:10.326Z,2.10
2018-11-29T09:00:07.761Z,2.10
2018-11-29T09:01:04.923Z,2.10
2018-11-29T09:02:05.133Z,2.10
2018-11-29T09:03:05.461Z,2.10
2018-11-29T09:04:05.537Z,2.20
2018-11-29T09:05:08.269Z,2.20
2018-11-29T09:06:07.702Z,2.20
2018-11-29T09:07:08.211Z,2.20
2018-11-29T09:08:10.275Z,2.20
2018-11-29T09:09:05.357Z,2.20
2018-11-29T09:10:05.478Z,2.20
2018-11-29T09:11:10.774Z,2.30
2018-11-29T09:12:04.898Z,2.30
2018-11-29T09:13:05.048Z,2.30
2018-11-29T09:14:07.693Z,2.30
2018-11-29T09:15:04.864Z,2.30
2018-11-29T09:16:05.520Z,2.40
2018-11-29T09:17:08.225Z,2.40
2018-11-29T09:18:05.243Z,2.40
2018-11-29T09:19:05.375Z,2.40
2018-11-29T09:20:05.538Z,2.40
2018-11-29T09:21:05.599Z,2.40
2018-11-29T09:23:04.953Z,2.40
2018-11-29T09:24:07.444Z,2.40
2018-11-29T09:25:05.155Z,2.40
2018-11-29T09:26:07.681Z,2.50
2018-11-29T09:27:05.570Z,2.50
2018-11-29T09:28:08.210Z,2.50
2018-11-29T09:29:07.738Z,2.50
2018-11-29T09:30:05.774Z,2.50
2018-11-29T09:31:04.936Z,2.50
2018-11-29T09:32:05.166Z,2.50
2018-11-29T09:33:05.258Z,2.50
2018-11-29T09:34:07.911Z,2.60
2018-11-29T09:35:04.922Z,2.50
2018-11-29T09:36:07.593Z,2.50
2018-11-29T09:37:05.462Z,2.50
2018-11-29T09:38:05.602Z,2.60
2018-11-29T09:39:05.863Z,2.60
2018-11-29T09:40:05.035Z,2.50
2018-11-29T09:41:05.119Z,2.60
2018-11-29T09:42:07.768Z,2.60
2018-11-29T09:43:05.722Z,2.60
2018-11-29T09:44:05.084Z,2.60
2018-11-29T09:45:07.737Z,2.70
2018-11-29T09:46:04.950Z,2.70
2018-11-29T09:47:05.027Z,2.70
2018-11-29T09:48:05.182Z,2.70
2018-11-29T09:49:08.100Z,2.80
2018-11-29T09:50:05.097Z,2.70
2018-11-29T09:51:05.159Z,2.80
2018-11-29T09:52:07.846Z,2.80
2018-11-29T09:53:04.962Z,2.80
2018-11-29T09:54:10.162Z,2.80
2018-11-29T09:55:07.789Z,2.90
2018-11-29T09:56:04.959Z,2.90
2018-11-29T09:57:05.036Z,2.90
2018-11-29T09:58:05.163Z,2.90
2018-11-29T09:59:07.722Z,3.00
2018-11-29T10:00:05.588Z,3.00
2018-11-29T10:01:05.628Z,3.00
2018-11-29T10:02:04.924Z,3.00
2018-11-29T10:03:04.923Z,3.10
2018-11-29T10:04:04.980Z,3.10
2018-11-29T10:05:05.218Z,3.10
2018-11-29T10:06:10.480Z,3.20
2018-11-29T10:07:05.492Z,3.10
2018-11-29T10:08:11.502Z,3.20
2018-11-29T10:09:05.356Z,3.20
2018-11-29T10:10:05.420Z,3.20
2018-11-29T10:11:05.454Z,3.30
2018-11-29T10:12:05.538Z,3.20
2018-11-29T10:13:08.097Z,3.30
2018-11-29T10:14:10.072Z,3.30
2018-11-29T10:15:05.112Z,3.30
2018-11-29T10:16:07.792Z,3.40
2018-11-29T10:17:04.941Z,3.40
2018-11-29T10:18:05.094Z,3.40
2018-11-29T10:19:05.194Z,3.40
2018-11-29T10:20:05.401Z,3.50
2018-11-29T10:21:08.176Z,3.50
2018-11-29T10:22:05.181Z,3.50
2018-11-29T10:23:10.467Z,3.50
2018-11-29T10:24:05.457Z,3.50
2018-11-29T10:25:05.447Z,3.50
2018-11-29T10:26:05.540Z,3.50
2018-11-29T10:28:05.006Z,3.60
2018-11-29T10:29:05.173Z,3.60
2018-11-29T10:30:05.594Z,3.60
2018-11-29T10:31:04.955Z,3.60
2018-11-29T10:32:07.631Z,3.70
2018-11-29T10:33:05.696Z,3.70
2018-11-29T10:34:04.995Z,3.70
2018-11-29T10:35:05.035Z,3.70
2018-11-29T10:36:05.116Z,3.80
2018-11-29T10:37:05.405Z,3.80
2018-11-29T10:38:05.705Z,3.80
2018-11-29T10:40:05.008Z,3.80
2018-11-29T10:41:07.824Z,3.90
2018-11-29T10:42:05.453Z,3.80
2018-11-29T10:43:08.009Z,3.90
2018-11-29T10:44:05.077Z,3.90
2018-11-29T10:45:05.264Z,4.00
2018-11-29T10:46:05.350Z,4.00
2018-11-29T10:47:05.339Z,4.00
2018-11-29T10:48:05.550Z,4.00
2018-11-29T10:49:05.788Z,4.00
2018-11-29T10:50:05.056Z,4.00
2018-11-29T10:51:05.117Z,4.10
2018-11-29T10:52:05.240Z,4.10
2018-11-29T10:53:05.378Z,4.10
2018-11-29T10:54:05.455Z,4.10
2018-11-29T10:55:05.463Z,4.20
2018-11-29T10:56:05.581Z,4.20
2018-11-29T10:58:05.263Z,4.20
2018-11-29T10:58:10.443Z,4.20
2018-11-29T10:59:07.826Z,4.30
2018-11-29T11:00:09.738Z,4.20
2018-11-29T11:01:07.390Z,4.30
2018-11-29T11:02:07.808Z,4.40
2018-11-29T11:03:05.056Z,4.30
2018-11-29T11:04:05.212Z,4.30
2018-11-29T11:05:05.362Z,4.40
2018-11-29T11:06:07.955Z,4.40
2018-11-29T11:07:05.039Z,4.40
2018-11-29T11:08:08.327Z,4.40
2018-11-29T11:09:05.065Z,4.50
2018-11-29T11:10:05.112Z,4.50
2018-11-29T11:11:05.291Z,4.50
2018-11-29T11:12:07.992Z,4.50
2018-11-29T11:13:05.023Z,4.50
2018-11-29T11:14:05.108Z,4.50
2018-11-29T11:15:10.335Z,4.50
2018-11-29T11:16:05.320Z,4.50
2018-11-29T11:17:05.625Z,4.60
2018-11-29T11:18:05.069Z,4.60
2018-11-29T11:19:05.345Z,4.60
2018-11-29T11:20:05.063Z,4.60
2018-11-29T11:22:05.214Z,4.60
2018-11-29T11:23:07.943Z,4.70
2018-11-29T11:24:05.638Z,4.70
2018-11-29T11:25:05.067Z,4.70
2018-11-29T11:26:07.833Z,4.70
2018-11-29T11:27:05.071Z,4.70
2018-11-29T11:28:07.746Z,4.80
2018-11-29T11:29:07.965Z,4.80
2018-11-29T11:30:09.947Z,4.90
2018-11-29T11:31:05.048Z,4.90
2018-11-29T11:32:05.197Z,4.90
2018-11-29T11:33:07.795Z,4.90
2018-11-29T11:34:05.063Z,4.90
2018-11-29T11:35:05.249Z,4.90
2018-11-29T11:36:08.023Z,5.00
2018-11-29T11:37:05.058Z,4.90
2018-11-29T11:38:07.687Z,4.90
2018-11-29T11:39:05.543Z,5.00
2018-11-29T11:40:08.136Z,5.00
2018-11-29T11:41:10.260Z,5.00
2018-11-29T11:42:07.871Z,5.00
2018-11-29T11:43:05.671Z,5.00
2018-11-29T11:44:05.132Z,5.00
2018-11-29T11:45:05.178Z,5.00
2018-11-29T11:46:05.652Z,5.00
2018-11-29T11:47:05.086Z,5.00
2018-11-29T11:48:05.097Z,5.00
2018-11-29T11:49:05.171Z,5.00
2018-11-29T11:50:12.968Z,5.00
2018-11-29T11:51:05.082Z,5.00
2018-11-29T11:52:10.474Z,5.00
2018-11-29T11:53:05.095Z,5.10
2018-11-29T11:55:05.232Z,5.10
2018-11-29T11:56:07.790Z,5.10
2018-11-29T11:57:05.109Z,5.10
2018-11-29T11:58:05.286Z,5.10
2018-11-29T11:59:05.337Z,5.10
2018-11-29T12:00:07.958Z,5.10
2018-11-29T12:01:05.100Z,5.10
2018-11-29T12:02:05.243Z,5.10
2018-11-29T12:03:10.437Z,5.10
2018-11-29T12:04:05.364Z,5.20
2018-11-29T12:05:05.072Z,5.20
2018-11-29T12:06:07.801Z,5.10
2018-11-29T12:07:05.121Z,5.10
2018-11-29T12:08:05.252Z,5.20
2018-11-29T12:09:07.977Z,5.10
2018-11-29T12:10:05.121Z,5.10
2018-11-29T12:11:05.236Z,5.10
2018-11-29T12:12:05.295Z,5.10
2018-11-29T12:13:05.306Z,5.10
2018-11-29T12:14:05.378Z,5.10
2018-11-29T12:15:05.384Z,5.10
2018-11-29T12:16:07.942Z,5.00
2018-11-29T12:17:05.125Z,5.00
2018-11-29T12:18:05.189Z,5.00
2018-11-29T12:19:05.378Z,5.00
2018-11-29T12:20:05.645Z,5.00
2018-11-29T12:21:05.130Z,5.00
2018-11-29T12:22:05.241Z,5.00
2018-11-29T12:23:07.894Z,4.90
2018-11-29T12:24:05.120Z,4.90
2018-11-29T12:25:05.142Z,4.90
2018-11-29T12:26:05.246Z,4.90
2018-11-29T12:27:07.906Z,4.90
2018-11-29T12:28:09.794Z,4.90
2018-11-29T12:29:05.154Z,4.90
2018-11-29T12:30:05.105Z,4.90
2018-11-29T12:31:05.174Z,4.90
2018-11-29T12:32:05.314Z,4.90
2018-11-29T12:33:05.462Z,4.90
2018-11-29T12:34:08.160Z,4.90
2018-11-29T12:35:05.236Z,4.90
2018-11-29T12:36:05.310Z,4.90
2018-11-29T12:37:05.381Z,4.90
2018-11-29T12:38:05.642Z,4.90
2018-11-29T12:39:05.453Z,4.90
2018-11-29T12:40:08.101Z,4.90
2018-11-29T12:41:05.148Z,4.90
2018-11-29T12:42:07.870Z,4.90
2018-11-29T12:43:05.177Z,4.90
2018-11-29T12:44:05.438Z,4.90
2018-11-29T12:45:05.546Z,4.90
2018-11-29T12:46:05.569Z,4.90
2018-11-29T12:47:08.156Z,4.90
2018-11-29T12:48:05.120Z,4.90
2018-11-29T12:49:05.333Z,4.90
2018-11-29T12:50:05.378Z,4.90
2018-11-29T12:51:07.924Z,4.90
2018-11-29T12:52:05.171Z,4.90
2018-11-29T12:53:05.183Z,5.00
2018-11-29T12:54:05.199Z,5.00
2018-11-29T12:55:05.473Z,4.90
2018-11-29T12:56:05.480Z,5.00
2018-11-29T12:57:05.709Z,5.00
2018-11-29T12:58:05.787Z,5.00
2018-11-29T12:59:05.143Z,5.00
2018-11-29T13:00:05.187Z,5.10
2018-11-29T13:01:05.265Z,5.10
2018-11-29T13:02:05.294Z,5.10
2018-11-29T13:03:07.907Z,5.10
2018-11-29T13:04:07.550Z,5.10
2018-11-29T13:05:05.465Z,5.10
2018-11-29T13:06:05.543Z,5.10
2018-11-29T13:07:05.671Z,5.10
2018-11-29T13:08:05.204Z,5.10
2018-11-29T13:09:05.294Z,5.10
2018-11-29T13:10:05.505Z,5.10
2018-11-29T13:11:10.643Z,5.10
2018-11-29T13:12:05.156Z,5.10
2018-11-29T13:13:10.364Z,5.10
2018-11-29T13:14:05.308Z,5.10
2018-11-29T13:15:05.566Z,5.10
2018-11-29T13:16:05.192Z,5.10